< < Back
Terminal Aerodrome Forecast


Current Version              Previous Versions:   1  2  3  4  5  6  7  8  9  

Terminal Aerodrome Forecast

801
FTUS44 KBMX 272324
TAFANB
TAF
KANB 272324Z 2800/2824 02004KT P6SM OVC250
     FM280600 05005KT P6SM OVC250
     FM281500 07007KT P6SM OVC250
     FM282000 05008KT P6SM -RA OVC120=

Latest METAR

505
SAUS70 KWBC 280000 RRB
MTRANB
METAR KANB 272353Z AUTO 01004KT 10SM CLR 18/06 A2987 RMK AO2 SLP113
T01780056 10200 20178 55008


USA.gov is the U.S. government's official web portal to all federal, state and local government web resources and services.